sensor_id;sensor_type;location;lat;lon;timestamp;P1;durP1;ratioP1;P2;durP2;ratioP2
62475;SDS011;50739;45.670;11.936;2022-10-16T00:04:43;76.97;;;41.15;;
62475;SDS011;50739;45.670;11.936;2022-10-16T00:09:47;75.22;;;42.08;;
62475;SDS011;50739;45.670;11.936;2022-10-16T00:14:49;79.83;;;41.57;;
62475;SDS011;50739;45.670;11.936;2022-10-16T00:19:50;77.73;;;41.23;;
62475;SDS011;50739;45.670;11.936;2022-10-16T00:24:54;78.17;;;42.10;;
62475;SDS011;50739;45.670;11.936;2022-10-16T00:29:55;77.25;;;41.45;;
62475;SDS011;50739;45.670;11.936;2022-10-16T00:34:57;78.20;;;41.28;;
62475;SDS011;50739;45.670;11.936;2022-10-16T00:40:00;80.93;;;42.67;;
62475;SDS011;50739;45.670;11.936;2022-10-16T00:45:02;75.97;;;41.83;;
62475;SDS011;50739;45.670;11.936;2022-10-16T00:50:06;75.43;;;41.50;;
62475;SDS011;50739;45.670;11.936;2022-10-16T00:55:11;75.45;;;41.45;;
62475;SDS011;50739;45.670;11.936;2022-10-16T01:00:15;78.50;;;41.25;;
62475;SDS011;50739;45.670;11.936;2022-10-16T01:05:19;78.07;;;40.65;;
62475;SDS011;50739;45.670;11.936;2022-10-16T01:10:27;78.70;;;41.15;;
62475;SDS011;50739;45.670;11.936;2022-10-16T01:15:33;81.70;;;41.00;;
62475;SDS011;50739;45.670;11.936;2022-10-16T01:20:40;79.75;;;41.35;;
62475;SDS011;50739;45.670;11.936;2022-10-16T01:25:57;78.60;;;42.53;;
62475;SDS011;50739;45.670;11.936;2022-10-16T01:31:12;78.07;;;41.60;;
62475;SDS011;50739;45.670;11.936;2022-10-16T01:36:19;78.83;;;41.10;;
62475;SDS011;50739;45.670;11.936;2022-10-16T01:41:29;75.22;;;41.47;;
62475;SDS011;50739;45.670;11.936;2022-10-16T01:46:36;80.45;;;41.80;;
62475;SDS011;50739;45.670;11.936;2022-10-16T01:51:40;77.40;;;41.80;;
62475;SDS011;50739;45.670;11.936;2022-10-16T01:56:44;79.53;;;41.83;;
62475;SDS011;50739;45.670;11.936;2022-10-16T02:01:50;80.05;;;42.42;;
62475;SDS011;50739;45.670;11.936;2022-10-16T02:06:56;83.77;;;43.57;;
62475;SDS011;50739;45.670;11.936;2022-10-16T02:11:59;78.63;;;43.05;;
62475;SDS011;50739;45.670;11.936;2022-10-16T02:17:10;83.05;;;44.03;;
62475;SDS011;50739;45.670;11.936;2022-10-16T02:22:15;84.13;;;43.92;;
62475;SDS011;50739;45.670;11.936;2022-10-16T02:27:20;78.17;;;42.90;;
62475;SDS011;50739;45.670;11.936;2022-10-16T02:32:28;81.95;;;43.33;;
62475;SDS011;50739;45.670;11.936;2022-10-16T02:37:33;80.47;;;42.07;;
62475;SDS011;50739;45.670;11.936;2022-10-16T02:42:36;78.87;;;42.30;;
62475;SDS011;50739;45.670;11.936;2022-10-16T02:47:42;76.73;;;40.77;;
62475;SDS011;50739;45.670;11.936;2022-10-16T02:52:43;79.18;;;41.72;;
62475;SDS011;50739;45.670;11.936;2022-10-16T02:57:45;76.55;;;40.90;;
62475;SDS011;50739;45.670;11.936;2022-10-16T03:02:49;70.78;;;39.55;;
62475;SDS011;50739;45.670;11.936;2022-10-16T03:07:50;68.65;;;38.58;;
62475;SDS011;50739;45.670;11.936;2022-10-16T03:12:52;70.72;;;39.33;;
62475;SDS011;50739;45.670;11.936;2022-10-16T03:17:56;72.83;;;39.50;;
62475;SDS011;50739;45.670;11.936;2022-10-16T03:22:58;70.50;;;39.00;;
62475;SDS011;50739;45.670;11.936;2022-10-16T03:28:00;69.27;;;39.43;;
62475;SDS011;50739;45.670;11.936;2022-10-16T03:33:04;69.43;;;38.27;;
62475;SDS011;50739;45.670;11.936;2022-10-16T03:38:06;67.88;;;38.15;;
62475;SDS011;50739;45.670;11.936;2022-10-16T03:43:08;66.45;;;37.38;;
62475;SDS011;50739;45.670;11.936;2022-10-16T03:48:11;70.78;;;38.17;;
62475;SDS011;50739;45.670;11.936;2022-10-16T03:53:13;66.72;;;36.70;;
62475;SDS011;50739;45.670;11.936;2022-10-16T03:58:15;67.05;;;36.50;;
62475;SDS011;50739;45.670;11.936;2022-10-16T04:03:18;63.00;;;35.37;;
62475;SDS011;50739;45.670;11.936;2022-10-16T04:08:21;63.47;;;35.28;;
62475;SDS011;50739;45.670;11.936;2022-10-16T04:13:23;63.50;;;35.58;;
62475;SDS011;50739;45.670;11.936;2022-10-16T04:18:26;65.28;;;36.13;;
62475;SDS011;50739;45.670;11.936;2022-10-16T04:23:29;61.80;;;35.47;;
62475;SDS011;50739;45.670;11.936;2022-10-16T04:28:48;64.57;;;35.80;;
62475;SDS011;50739;45.670;11.936;2022-10-16T04:33:50;60.97;;;34.20;;
62475;SDS011;50739;45.670;11.936;2022-10-16T04:38:52;61.53;;;34.17;;
62475;SDS011;50739;45.670;11.936;2022-10-16T04:43:55;60.42;;;34.15;;
62475;SDS011;50739;45.670;11.936;2022-10-16T04:48:57;62.17;;;34.38;;
62475;SDS011;50739;45.670;11.936;2022-10-16T04:53:59;63.38;;;35.13;;
62475;SDS011;50739;45.670;11.936;2022-10-16T04:59:02;63.75;;;34.25;;
62475;SDS011;50739;45.670;11.936;2022-10-16T05:04:04;62.63;;;34.92;;
62475;SDS011;50739;45.670;11.936;2022-10-16T05:09:06;63.85;;;35.13;;
62475;SDS011;50739;45.670;11.936;2022-10-16T05:14:10;61.30;;;34.90;;
62475;SDS011;50739;45.670;11.936;2022-10-16T05:19:12;64.82;;;35.92;;
62475;SDS011;50739;45.670;11.936;2022-10-16T05:24:14;67.32;;;35.75;;
62475;SDS011;50739;45.670;11.936;2022-10-16T05:29:17;62.70;;;34.57;;
62475;SDS011;50739;45.670;11.936;2022-10-16T05:34:20;65.03;;;35.45;;
62475;SDS011;50739;45.670;11.936;2022-10-16T05:39:22;65.75;;;35.45;;
62475;SDS011;50739;45.670;11.936;2022-10-16T05:44:25;65.82;;;36.55;;
62475;SDS011;50739;45.670;11.936;2022-10-16T05:49:27;65.38;;;36.33;;
62475;SDS011;50739;45.670;11.936;2022-10-16T05:54:29;65.90;;;35.50;;
62475;SDS011;50739;45.670;11.936;2022-10-16T05:59:32;70.82;;;36.92;;
62475;SDS011;50739;45.670;11.936;2022-10-16T06:04:34;67.90;;;36.20;;
62475;SDS011;50739;45.670;11.936;2022-10-16T06:09:36;70.65;;;37.22;;
62475;SDS011;50739;45.670;11.936;2022-10-16T06:14:39;70.47;;;37.73;;
62475;SDS011;50739;45.670;11.936;2022-10-16T06:19:41;68.95;;;37.53;;
62475;SDS011;50739;45.670;11.936;2022-10-16T06:24:43;68.50;;;35.43;;
62475;SDS011;50739;45.670;11.936;2022-10-16T06:29:46;67.77;;;36.37;;
62475;SDS011;50739;45.670;11.936;2022-10-16T06:34:48;65.40;;;36.37;;
62475;SDS011;50739;45.670;11.936;2022-10-16T06:39:50;63.42;;;35.67;;
62475;SDS011;50739;45.670;11.936;2022-10-16T06:44:55;66.15;;;36.53;;
62475;SDS011;50739;45.670;11.936;2022-10-16T06:49:57;64.72;;;36.47;;
62475;SDS011;50739;45.670;11.936;2022-10-16T06:54:59;63.65;;;34.45;;
62475;SDS011;50739;45.670;11.936;2022-10-16T07:00:02;66.67;;;34.87;;
62475;SDS011;50739;45.670;11.936;2022-10-16T07:05:05;66.47;;;35.15;;
62475;SDS011;50739;45.670;11.936;2022-10-16T07:10:08;60.90;;;34.72;;
62475;SDS011;50739;45.670;11.936;2022-10-16T07:15:11;61.85;;;34.88;;
62475;SDS011;50739;45.670;11.936;2022-10-16T07:20:13;66.10;;;34.97;;
62475;SDS011;50739;45.670;11.936;2022-10-16T07:25:15;65.00;;;36.47;;
62475;SDS011;50739;45.670;11.936;2022-10-16T07:30:18;66.82;;;35.65;;
62475;SDS011;50739;45.670;11.936;2022-10-16T07:35:20;60.10;;;34.38;;
62475;SDS011;50739;45.670;11.936;2022-10-16T07:40:22;60.00;;;34.47;;
62475;SDS011;50739;45.670;11.936;2022-10-16T07:45:28;60.60;;;33.53;;
62475;SDS011;50739;45.670;11.936;2022-10-16T07:50:30;59.58;;;34.00;;
62475;SDS011;50739;45.670;11.936;2022-10-16T07:55:32;58.38;;;33.67;;
62475;SDS011;50739;45.670;11.936;2022-10-16T08:00:35;56.03;;;32.58;;
62475;SDS011;50739;45.670;11.936;2022-10-16T08:05:37;57.47;;;33.60;;
62475;SDS011;50739;45.670;11.936;2022-10-16T08:10:39;56.92;;;32.97;;
62475;SDS011;50739;45.670;11.936;2022-10-16T08:15:43;56.33;;;33.53;;
62475;SDS011;50739;45.670;11.936;2022-10-16T08:20:45;61.92;;;34.03;;
62475;SDS011;50739;45.670;11.936;2022-10-16T08:25:47;59.63;;;32.55;;
62475;SDS011;50739;45.670;11.936;2022-10-16T08:30:50;57.83;;;34.55;;
62475;SDS011;50739;45.670;11.936;2022-10-16T08:35:52;58.13;;;33.53;;
62475;SDS011;50739;45.670;11.936;2022-10-16T08:40:55;58.57;;;32.93;;
62475;SDS011;50739;45.670;11.936;2022-10-16T08:46:23;58.60;;;33.20;;
62475;SDS011;50739;45.670;11.936;2022-10-16T08:51:35;58.35;;;32.95;;
62475;SDS011;50739;45.670;11.936;2022-10-16T08:56:38;57.83;;;33.63;;
62475;SDS011;50739;45.670;11.936;2022-10-16T09:01:41;57.72;;;32.63;;
62475;SDS011;50739;45.670;11.936;2022-10-16T09:06:46;59.08;;;33.17;;
62475;SDS011;50739;45.670;11.936;2022-10-16T09:11:53;55.23;;;32.70;;
62475;SDS011;50739;45.670;11.936;2022-10-16T09:17:03;58.38;;;34.17;;
62475;SDS011;50739;45.670;11.936;2022-10-16T09:22:16;61.05;;;34.22;;
62475;SDS011;50739;45.670;11.936;2022-10-16T09:27:23;61.58;;;33.35;;
62475;SDS011;50739;45.670;11.936;2022-10-16T09:32:26;60.72;;;34.30;;
62475;SDS011;50739;45.670;11.936;2022-10-16T09:37:30;57.63;;;33.67;;
62475;SDS011;50739;45.670;11.936;2022-10-16T09:42:34;53.47;;;31.47;;
62475;SDS011;50739;45.670;11.936;2022-10-16T09:47:39;55.00;;;31.25;;
62475;SDS011;50739;45.670;11.936;2022-10-16T09:52:44;52.65;;;29.95;;
62475;SDS011;50739;45.670;11.936;2022-10-16T09:57:49;50.88;;;30.85;;
62475;SDS011;50739;45.670;11.936;2022-10-16T10:02:52;54.10;;;31.92;;
62475;SDS011;50739;45.670;11.936;2022-10-16T10:07:56;55.33;;;31.65;;
62475;SDS011;50739;45.670;11.936;2022-10-16T10:12:59;55.37;;;31.53;;
62475;SDS011;50739;45.670;11.936;2022-10-16T10:18:15;49.30;;;29.58;;
62475;SDS011;50739;45.670;11.936;2022-10-16T10:23:20;44.17;;;27.88;;
62475;SDS011;50739;45.670;11.936;2022-10-16T10:28:29;46.23;;;28.47;;
62475;SDS011;50739;45.670;11.936;2022-10-16T10:33:46;47.10;;;28.77;;
62475;SDS011;50739;45.670;11.936;2022-10-16T10:38:54;41.05;;;26.40;;
62475;SDS011;50739;45.670;11.936;2022-10-16T10:44:01;45.95;;;26.02;;
62475;SDS011;50739;45.670;11.936;2022-10-16T10:49:13;42.47;;;25.23;;
62475;SDS011;50739;45.670;11.936;2022-10-16T10:54:25;40.80;;;24.80;;
62475;SDS011;50739;45.670;11.936;2022-10-16T10:59:46;40.25;;;24.55;;
62475;SDS011;50739;45.670;11.936;2022-10-16T11:05:03;40.07;;;24.73;;
62475;SDS011;50739;45.670;11.936;2022-10-16T11:10:22;40.70;;;23.60;;
62475;SDS011;50739;45.670;11.936;2022-10-16T11:15:28;36.92;;;23.10;;
62475;SDS011;50739;45.670;11.936;2022-10-16T11:20:34;35.55;;;21.17;;
62475;SDS011;50739;45.670;11.936;2022-10-16T11:25:41;33.78;;;21.73;;
62475;SDS011;50739;45.670;11.936;2022-10-16T11:30:46;31.73;;;21.27;;
62475;SDS011;50739;45.670;11.936;2022-10-16T11:35:53;33.67;;;20.00;;
62475;SDS011;50739;45.670;11.936;2022-10-16T11:41:02;34.83;;;21.73;;
62475;SDS011;50739;45.670;11.936;2022-10-16T11:46:10;31.70;;;19.97;;
62475;SDS011;50739;45.670;11.936;2022-10-16T11:51:21;29.38;;;20.13;;
62475;SDS011;50739;45.670;11.936;2022-10-16T11:56:30;29.25;;;20.02;;
62475;SDS011;50739;45.670;11.936;2022-10-16T12:01:38;34.87;;;21.23;;
62475;SDS011;50739;45.670;11.936;2022-10-16T12:06:46;34.88;;;22.50;;
62475;SDS011;50739;45.670;11.936;2022-10-16T12:11:52;33.83;;;22.38;;
62475;SDS011;50739;45.670;11.936;2022-10-16T12:16:55;31.90;;;21.08;;
62475;SDS011;50739;45.670;11.936;2022-10-16T12:22:00;35.22;;;22.30;;
62475;SDS011;50739;45.670;11.936;2022-10-16T12:27:04;32.92;;;22.23;;
62475;SDS011;50739;45.670;11.936;2022-10-16T12:32:23;35.28;;;22.20;;
62475;SDS011;50739;45.670;11.936;2022-10-16T12:37:31;37.95;;;23.73;;
62475;SDS011;50739;45.670;11.936;2022-10-16T12:42:37;33.10;;;21.80;;
62475;SDS011;50739;45.670;11.936;2022-10-16T12:47:47;35.65;;;23.00;;
62475;SDS011;50739;45.670;11.936;2022-10-16T12:52:52;38.42;;;24.02;;
62475;SDS011;50739;45.670;11.936;2022-10-16T12:57:59;37.17;;;23.57;;
62475;SDS011;50739;45.670;11.936;2022-10-16T13:08:59;36.42;;;22.90;;
62475;SDS011;50739;45.670;11.936;2022-10-16T13:14:28;33.53;;;22.83;;
62475;SDS011;50739;45.670;11.936;2022-10-16T13:19:50;34.47;;;22.80;;
62475;SDS011;50739;45.670;11.936;2022-10-16T13:25:02;33.92;;;22.92;;
62475;SDS011;50739;45.670;11.936;2022-10-16T13:30:16;34.28;;;22.90;;
62475;SDS011;50739;45.670;11.936;2022-10-16T13:35:21;39.03;;;24.42;;
62475;SDS011;50739;45.670;11.936;2022-10-16T13:40:30;36.33;;;23.73;;
62475;SDS011;50739;45.670;11.936;2022-10-16T13:45:34;38.30;;;24.67;;
62475;SDS011;50739;45.670;11.936;2022-10-16T13:50:36;36.33;;;24.05;;
62475;SDS011;50739;45.670;11.936;2022-10-16T13:55:39;38.40;;;25.25;;
62475;SDS011;50739;45.670;11.936;2022-10-16T14:00:51;37.92;;;23.35;;
62475;SDS011;50739;45.670;11.936;2022-10-16T14:05:56;38.43;;;24.33;;
62475;SDS011;50739;45.670;11.936;2022-10-16T14:11:01;35.72;;;23.38;;
62475;SDS011;50739;45.670;11.936;2022-10-16T14:16:05;37.03;;;24.35;;
62475;SDS011;50739;45.670;11.936;2022-10-16T14:21:11;36.40;;;23.50;;
62475;SDS011;50739;45.670;11.936;2022-10-16T14:26:18;35.77;;;23.20;;
62475;SDS011;50739;45.670;11.936;2022-10-16T14:31:23;37.10;;;23.37;;
62475;SDS011;50739;45.670;11.936;2022-10-16T14:36:28;36.85;;;23.63;;
62475;SDS011;50739;45.670;11.936;2022-10-16T14:41:32;36.72;;;24.23;;
62475;SDS011;50739;45.670;11.936;2022-10-16T14:46:43;32.73;;;21.67;;
62475;SDS011;50739;45.670;11.936;2022-10-16T14:51:46;38.22;;;23.73;;
62475;SDS011;50739;45.670;11.936;2022-10-16T14:56:50;35.40;;;24.20;;
62475;SDS011;50739;45.670;11.936;2022-10-16T15:01:54;35.75;;;23.05;;
62475;SDS011;50739;45.670;11.936;2022-10-16T15:06:56;37.90;;;23.80;;
62475;SDS011;50739;45.670;11.936;2022-10-16T15:11:59;38.22;;;24.13;;
62475;SDS011;50739;45.670;11.936;2022-10-16T15:17:01;36.67;;;23.92;;
62475;SDS011;50739;45.670;11.936;2022-10-16T15:22:03;32.50;;;22.43;;
62475;SDS011;50739;45.670;11.936;2022-10-16T15:27:07;35.33;;;23.13;;
62475;SDS011;50739;45.670;11.936;2022-10-16T15:32:09;36.47;;;23.58;;
62475;SDS011;50739;45.670;11.936;2022-10-16T15:37:11;35.83;;;24.02;;
62475;SDS011;50739;45.670;11.936;2022-10-16T15:42:15;35.22;;;23.90;;
62475;SDS011;50739;45.670;11.936;2022-10-16T15:47:17;39.92;;;24.30;;
62475;SDS011;50739;45.670;11.936;2022-10-16T15:52:19;37.72;;;22.98;;
62475;SDS011;50739;45.670;11.936;2022-10-16T15:57:22;44.00;;;24.85;;
62475;SDS011;50739;45.670;11.936;2022-10-16T16:02:24;36.00;;;24.52;;
62475;SDS011;50739;45.670;11.936;2022-10-16T16:07:25;34.10;;;23.75;;
62475;SDS011;50739;45.670;11.936;2022-10-16T16:12:29;35.53;;;24.27;;
62475;SDS011;50739;45.670;11.936;2022-10-16T16:17:31;37.13;;;23.70;;
62475;SDS011;50739;45.670;11.936;2022-10-16T16:22:33;38.33;;;23.80;;
62475;SDS011;50739;45.670;11.936;2022-10-16T16:27:37;46.20;;;24.27;;
62475;SDS011;50739;45.670;11.936;2022-10-16T16:32:39;38.67;;;24.27;;
62475;SDS011;50739;45.670;11.936;2022-10-16T16:37:41;39.25;;;24.38;;
62475;SDS011;50739;45.670;11.936;2022-10-16T16:42:44;37.60;;;24.08;;
62475;SDS011;50739;45.670;11.936;2022-10-16T16:47:49;38.23;;;24.10;;
62475;SDS011;50739;45.670;11.936;2022-10-16T16:52:50;38.77;;;24.63;;
62475;SDS011;50739;45.670;11.936;2022-10-16T16:57:54;127.90;;;32.30;;
62475;SDS011;50739;45.670;11.936;2022-10-16T17:02:56;42.92;;;24.55;;
62475;SDS011;50739;45.670;11.936;2022-10-16T17:07:58;44.35;;;24.88;;
62475;SDS011;50739;45.670;11.936;2022-10-16T17:13:02;57.90;;;25.15;;
62475;SDS011;50739;45.670;11.936;2022-10-16T17:18:03;40.53;;;25.30;;
62475;SDS011;50739;45.670;11.936;2022-10-16T17:23:05;45.17;;;25.07;;
62475;SDS011;50739;45.670;11.936;2022-10-16T17:28:09;50.63;;;26.05;;
62475;SDS011;50739;45.670;11.936;2022-10-16T17:33:12;38.40;;;24.20;;
62475;SDS011;50739;45.670;11.936;2022-10-16T17:38:15;49.65;;;25.83;;
62475;SDS011;50739;45.670;11.936;2022-10-16T17:43:18;46.30;;;27.10;;
62475;SDS011;50739;45.670;11.936;2022-10-16T17:48:20;43.13;;;26.45;;
62475;SDS011;50739;45.670;11.936;2022-10-16T17:53:22;42.67;;;26.70;;
62475;SDS011;50739;45.670;11.936;2022-10-16T17:58:25;43.58;;;26.58;;
62475;SDS011;50739;45.670;11.936;2022-10-16T18:03:27;42.22;;;26.92;;
62475;SDS011;50739;45.670;11.936;2022-10-16T18:08:29;44.47;;;27.63;;
62475;SDS011;50739;45.670;11.936;2022-10-16T18:13:32;46.93;;;28.90;;
62475;SDS011;50739;45.670;11.936;2022-10-16T18:18:34;48.45;;;29.88;;
62475;SDS011;50739;45.670;11.936;2022-10-16T18:23:37;48.07;;;29.67;;
62475;SDS011;50739;45.670;11.936;2022-10-16T18:28:41;49.75;;;30.42;;
62475;SDS011;50739;45.670;11.936;2022-10-16T18:33:44;53.63;;;32.80;;
62475;SDS011;50739;45.670;11.936;2022-10-16T18:38:49;50.00;;;30.73;;
62475;SDS011;50739;45.670;11.936;2022-10-16T18:43:53;52.67;;;30.90;;
62475;SDS011;50739;45.670;11.936;2022-10-16T18:48:55;53.25;;;31.90;;
62475;SDS011;50739;45.670;11.936;2022-10-16T18:53:58;54.65;;;33.55;;
62475;SDS011;50739;45.670;11.936;2022-10-16T18:59:03;60.67;;;34.70;;
62475;SDS011;50739;45.670;11.936;2022-10-16T19:04:07;58.95;;;35.40;;
62475;SDS011;50739;45.670;11.936;2022-10-16T19:09:10;54.73;;;33.27;;
62475;SDS011;50739;45.670;11.936;2022-10-16T19:14:15;58.97;;;35.10;;
62475;SDS011;50739;45.670;11.936;2022-10-16T19:19:19;60.25;;;35.58;;
62475;SDS011;50739;45.670;11.936;2022-10-16T19:24:22;69.50;;;37.10;;
62475;SDS011;50739;45.670;11.936;2022-10-16T19:29:26;58.63;;;36.53;;
62475;SDS011;50739;45.670;11.936;2022-10-16T19:34:28;64.80;;;36.58;;
62475;SDS011;50739;45.670;11.936;2022-10-16T19:39:30;64.55;;;37.63;;
62475;SDS011;50739;45.670;11.936;2022-10-16T19:44:33;62.50;;;37.13;;
62475;SDS011;50739;45.670;11.936;2022-10-16T19:49:35;63.00;;;36.73;;
62475;SDS011;50739;45.670;11.936;2022-10-16T19:54:37;64.13;;;37.20;;
62475;SDS011;50739;45.670;11.936;2022-10-16T19:59:40;64.57;;;37.88;;
62475;SDS011;50739;45.670;11.936;2022-10-16T20:04:43;64.20;;;36.65;;
62475;SDS011;50739;45.670;11.936;2022-10-16T20:09:45;63.33;;;37.42;;
62475;SDS011;50739;45.670;11.936;2022-10-16T20:14:48;63.72;;;37.72;;
62475;SDS011;50739;45.670;11.936;2022-10-16T20:19:50;61.92;;;37.50;;
62475;SDS011;50739;45.670;11.936;2022-10-16T20:24:52;66.10;;;37.88;;
62475;SDS011;50739;45.670;11.936;2022-10-16T20:29:55;69.07;;;38.83;;
62475;SDS011;50739;45.670;11.936;2022-10-16T20:34:57;65.97;;;37.72;;
62475;SDS011;50739;45.670;11.936;2022-10-16T20:39:59;65.03;;;37.67;;
62475;SDS011;50739;45.670;11.936;2022-10-16T20:45:02;65.50;;;39.33;;
62475;SDS011;50739;45.670;11.936;2022-10-16T20:50:04;63.92;;;37.45;;
62475;SDS011;50739;45.670;11.936;2022-10-16T20:55:07;63.58;;;38.22;;
62475;SDS011;50739;45.670;11.936;2022-10-16T21:00:11;63.07;;;37.73;;
62475;SDS011;50739;45.670;11.936;2022-10-16T21:05:14;65.47;;;37.87;;
62475;SDS011;50739;45.670;11.936;2022-10-16T21:10:16;65.78;;;37.30;;
62475;SDS011;50739;45.670;11.936;2022-10-16T21:15:20;60.60;;;36.30;;
62475;SDS011;50739;45.670;11.936;2022-10-16T21:20:22;59.03;;;36.67;;
62475;SDS011;50739;45.670;11.936;2022-10-16T21:25:24;63.42;;;38.00;;
62475;SDS011;50739;45.670;11.936;2022-10-16T21:30:27;62.37;;;37.23;;
62475;SDS011;50739;45.670;11.936;2022-10-16T21:35:29;68.53;;;37.20;;
62475;SDS011;50739;45.670;11.936;2022-10-16T21:40:31;63.72;;;36.47;;
62475;SDS011;50739;45.670;11.936;2022-10-16T21:45:35;61.53;;;37.00;;
62475;SDS011;50739;45.670;11.936;2022-10-16T21:50:36;64.55;;;37.60;;
62475;SDS011;50739;45.670;11.936;2022-10-16T21:55:38;60.03;;;36.80;;
62475;SDS011;50739;45.670;11.936;2022-10-16T22:00:41;63.87;;;36.57;;
62475;SDS011;50739;45.670;11.936;2022-10-16T22:05:43;62.53;;;36.50;;
62475;SDS011;50739;45.670;11.936;2022-10-16T22:10:45;62.40;;;35.65;;
62475;SDS011;50739;45.670;11.936;2022-10-16T22:15:49;58.47;;;35.07;;
62475;SDS011;50739;45.670;11.936;2022-10-16T22:20:51;61.57;;;35.27;;
62475;SDS011;50739;45.670;11.936;2022-10-16T22:25:57;61.20;;;36.00;;
62475;SDS011;50739;45.670;11.936;2022-10-16T22:31:01;61.13;;;34.67;;
62475;SDS011;50739;45.670;11.936;2022-10-16T22:36:05;62.55;;;36.35;;
62475;SDS011;50739;45.670;11.936;2022-10-16T22:41:15;63.42;;;36.63;;
62475;SDS011;50739;45.670;11.936;2022-10-16T22:46:20;62.72;;;37.58;;
62475;SDS011;50739;45.670;11.936;2022-10-16T22:51:23;63.43;;;37.77;;
62475;SDS011;50739;45.670;11.936;2022-10-16T22:56:26;66.63;;;36.83;;
62475;SDS011;50739;45.670;11.936;2022-10-16T23:01:30;61.97;;;35.60;;
62475;SDS011;50739;45.670;11.936;2022-10-16T23:06:33;60.30;;;36.07;;
62475;SDS011;50739;45.670;11.936;2022-10-16T23:11:35;61.97;;;36.15;;
62475;SDS011;50739;45.670;11.936;2022-10-16T23:16:38;61.05;;;36.20;;
62475;SDS011;50739;45.670;11.936;2022-10-16T23:21:40;65.27;;;35.73;;
62475;SDS011;50739;45.670;11.936;2022-10-16T23:26:42;62.38;;;36.30;;
62475;SDS011;50739;45.670;11.936;2022-10-16T23:31:45;68.72;;;36.72;;
62475;SDS011;50739;45.670;11.936;2022-10-16T23:36:47;60.75;;;36.05;;
62475;SDS011;50739;45.670;11.936;2022-10-16T23:41:49;59.65;;;35.22;;
62475;SDS011;50739;45.670;11.936;2022-10-16T23:46:52;60.50;;;35.38;;
62475;SDS011;50739;45.670;11.936;2022-10-16T23:51:54;59.50;;;35.57;;
62475;SDS011;50739;45.670;11.936;2022-10-16T23:56:56;60.60;;;34.37;;
